createdAt,value
2023-01-09T00:01:50.486Z,100.00
2023-01-09T00:04:19.599Z,100.00
2023-01-09T00:06:54.068Z,100.00
2023-01-09T00:09:24.577Z,100.00
2023-01-09T00:11:54.959Z,100.00
2023-01-09T00:14:24.341Z,100.00
2023-01-09T00:16:55.499Z,100.00
2023-01-09T00:19:23.971Z,100.00
2023-01-09T00:21:52.237Z,100.00
2023-01-09T00:24:20.497Z,100.00
2023-01-09T00:26:48.979Z,100.00
2023-01-09T00:29:18.087Z,100.00
2023-01-09T00:31:46.385Z,100.00
2023-01-09T00:34:14.752Z,100.00
2023-01-09T00:36:43.062Z,100.00
2023-01-09T00:39:11.493Z,100.00
2023-01-09T00:41:47.128Z,100.00
2023-01-09T00:44:35.004Z,100.00
2023-01-09T00:47:07.964Z,100.00
2023-01-09T00:49:37.783Z,100.00
2023-01-09T00:52:08.102Z,100.00
2023-01-09T00:54:37.309Z,100.00
2023-01-09T00:57:05.934Z,100.00
2023-01-09T00:59:34.282Z,100.00
2023-01-09T01:02:02.801Z,100.00
2023-01-09T01:04:49.901Z,100.00
2023-01-09T01:07:37.228Z,100.00
2023-01-09T01:10:13.059Z,100.00
2023-01-09T01:12:41.487Z,100.00
2023-01-09T01:15:11.014Z,100.00
2023-01-09T01:17:41.090Z,100.00
2023-01-09T01:20:13.432Z,100.00
2023-01-09T01:22:42.574Z,100.00
2023-01-09T01:25:13.689Z,100.00
2023-01-09T01:27:42.007Z,100.00
2023-01-09T01:30:13.679Z,100.00
2023-01-09T01:32:42.081Z,100.00
2023-01-09T01:35:11.759Z,100.00
2023-01-09T01:37:40.867Z,100.00
2023-01-09T01:40:11.693Z,100.00
2023-01-09T01:42:47.429Z,100.00
2023-01-09T01:45:28.276Z,100.00
2023-01-09T01:48:07.130Z,100.00
2023-01-09T01:50:48.386Z,100.00
2023-01-09T01:53:24.918Z,100.00
2023-01-09T01:56:12.155Z,100.00
2023-01-09T01:58:45.688Z,100.00
2023-01-09T02:01:15.299Z,100.00
2023-01-09T02:03:45.207Z,100.00
2023-01-09T02:06:14.094Z,100.00
2023-01-09T02:08:43.824Z,100.00
2023-01-09T02:11:14.711Z,100.00
2023-01-09T02:13:43.096Z,100.00
2023-01-09T02:16:45.695Z,100.00
2023-01-09T02:19:22.980Z,100.00
2023-01-09T02:22:16.378Z,100.00
2023-01-09T02:25:20.079Z,100.00
2023-01-09T02:28:20.737Z,100.00
2023-01-09T02:31:40.662Z,100.00
2023-01-09T02:34:31.502Z,100.00
2023-01-09T02:37:09.145Z,100.00
2023-01-09T02:39:47.564Z,100.00
2023-01-09T02:42:24.449Z,100.00
2023-01-09T02:44:53.647Z,100.00
2023-01-09T02:47:21.943Z,100.00
2023-01-09T02:50:00.326Z,100.00
2023-01-09T02:52:48.049Z,100.00
2023-01-09T02:55:25.307Z,100.00
2023-01-09T02:58:04.901Z,100.00
2023-01-09T03:01:01.442Z,100.00
2023-01-09T03:03:45.412Z,100.00
2023-01-09T03:06:32.785Z,100.00
2023-01-09T03:09:12.131Z,100.00
2023-01-09T03:11:47.882Z,100.00
2023-01-09T03:14:21.013Z,100.00
2023-01-09T03:16:55.577Z,100.00
2023-01-09T03:19:29.793Z,100.00
2023-01-09T03:21:59.077Z,100.00
2023-01-09T03:24:27.597Z,100.00
2023-01-09T03:26:55.885Z,100.00
2023-01-09T03:29:24.245Z,100.00
2023-01-09T03:31:52.729Z,100.00
2023-01-09T03:34:20.994Z,100.00
2023-01-09T03:36:49.231Z,100.00
2023-01-09T03:39:17.624Z,100.00
2023-01-09T03:41:45.903Z,100.00
2023-01-09T03:44:14.258Z,100.00
2023-01-09T03:46:42.586Z,100.00
2023-01-09T03:49:10.924Z,100.00
2023-01-09T03:51:39.240Z,100.00
2023-01-09T03:54:07.773Z,100.00
2023-01-09T03:56:36.095Z,100.00
2023-01-09T03:59:04.446Z,100.00
2023-01-09T04:01:33.701Z,100.00
2023-01-09T04:04:02.255Z,100.00
2023-01-09T04:06:30.823Z,100.00
2023-01-09T04:08:59.221Z,100.00
2023-01-09T04:11:27.504Z,100.00
2023-01-09T04:13:55.786Z,100.00
2023-01-09T04:16:24.169Z,100.00
2023-01-09T04:18:52.471Z,100.00
2023-01-09T04:21:20.748Z,100.00
2023-01-09T04:23:49.114Z,100.00
2023-01-09T04:26:17.409Z,100.00
2023-01-09T04:28:45.642Z,100.00
2023-01-09T04:31:14.297Z,100.00
2023-01-09T04:33:42.601Z,100.00
2023-01-09T04:36:10.995Z,100.00
2023-01-09T04:38:39.509Z,100.00
2023-01-09T04:41:07.816Z,100.00
2023-01-09T04:43:36.210Z,100.00
2023-01-09T04:46:04.663Z,100.00
2023-01-09T04:48:32.979Z,100.00
2023-01-09T04:51:01.296Z,100.00
2023-01-09T04:53:29.644Z,100.00
2023-01-09T04:55:57.923Z,100.00
2023-01-09T04:58:26.170Z,100.00
2023-01-09T05:00:54.635Z,100.00
2023-01-09T05:03:22.980Z,100.00
2023-01-09T05:05:51.861Z,100.00
2023-01-09T05:08:20.255Z,100.00
2023-01-09T05:10:48.549Z,100.00
2023-01-09T05:13:16.809Z,100.00
2023-01-09T05:15:45.172Z,100.00
2023-01-09T05:18:13.456Z,100.00
2023-01-09T05:20:41.707Z,100.00
2023-01-09T05:23:10.119Z,100.00
2023-01-09T05:25:38.475Z,100.00
2023-01-09T05:28:06.797Z,100.00
2023-01-09T05:30:35.112Z,100.00
2023-01-09T05:33:03.366Z,100.00
2023-01-09T05:35:31.756Z,100.00
2023-01-09T05:38:00.119Z,100.00
2023-01-09T05:40:32.336Z,100.00
2023-01-09T05:43:06.995Z,100.00
2023-01-09T05:45:35.918Z,100.00
2023-01-09T05:48:04.281Z,100.00
2023-01-09T05:50:32.703Z,100.00
2023-01-09T05:53:01.126Z,100.00
2023-01-09T05:55:29.496Z,100.00
2023-01-09T05:57:57.943Z,100.00
2023-01-09T06:00:26.237Z,100.00
2023-01-09T06:02:54.616Z,100.00
2023-01-09T06:05:23.327Z,100.00
2023-01-09T06:07:54.849Z,100.00
2023-01-09T06:10:23.237Z,100.00
2023-01-09T06:12:53.271Z,100.00
2023-01-09T06:15:21.700Z,100.00
2023-01-09T06:17:50.523Z,100.00
2023-01-09T06:20:18.947Z,100.00
2023-01-09T06:22:47.349Z,100.00
2023-01-09T06:25:15.842Z,100.00
2023-01-09T06:27:44.166Z,100.00
2023-01-09T06:30:14.642Z,100.00
2023-01-09T06:32:43.064Z,100.00
2023-01-09T06:35:11.990Z,100.00
2023-01-09T06:37:40.463Z,100.00
2023-01-09T06:40:09.583Z,100.00
2023-01-09T06:42:37.930Z,100.00
2023-01-09T06:45:06.997Z,100.00
2023-01-09T06:47:35.316Z,100.00
2023-01-09T06:50:03.956Z,100.00
2023-01-09T06:52:32.291Z,100.00
2023-01-09T06:55:00.672Z,100.00
2023-01-09T06:57:29.053Z,100.00
2023-01-09T06:59:57.916Z,100.00
2023-01-09T07:02:26.333Z,100.00
2023-01-09T07:04:54.705Z,100.00
2023-01-09T07:07:23.039Z,100.00
2023-01-09T07:09:51.466Z,100.00
2023-01-09T07:12:19.826Z,100.00
2023-01-09T07:14:48.170Z,100.00
2023-01-09T07:17:16.497Z,100.00
2023-01-09T07:19:46.821Z,100.00
2023-01-09T07:22:15.042Z,100.00
2023-01-09T07:24:44.523Z,100.00
2023-01-09T07:27:14.830Z,100.00
2023-01-09T07:29:43.168Z,100.00
2023-01-09T07:32:11.643Z,100.00
2023-01-09T07:34:43.974Z,100.00
2023-01-09T07:37:12.363Z,100.00
2023-01-09T07:39:40.660Z,100.00
2023-01-09T07:42:08.995Z,100.00
2023-01-09T07:44:38.481Z,100.00
2023-01-09T07:47:06.916Z,100.00
2023-01-09T07:49:35.415Z,100.00
2023-01-09T07:52:05.052Z,100.00
2023-01-09T07:55:00.475Z,100.00
2023-01-09T07:57:30.792Z,100.00
2023-01-09T08:00:01.163Z,100.00
2023-01-09T08:02:40.582Z,100.00
2023-01-09T08:05:13.661Z,100.00
2023-01-09T08:07:43.076Z,100.00
2023-01-09T08:10:12.273Z,100.00
2023-01-09T08:12:43.877Z,100.00
2023-01-09T08:15:12.457Z,100.00
2023-01-09T08:17:43.251Z,100.00
2023-01-09T08:20:13.911Z,100.00
2023-01-09T08:22:43.628Z,100.00
2023-01-09T08:25:12.572Z,100.00
2023-01-09T08:27:41.347Z,100.00
2023-01-09T08:30:10.224Z,100.00
2023-01-09T08:32:39.497Z,100.00
2023-01-09T08:35:09.220Z,100.00
2023-01-09T08:37:37.552Z,100.00
2023-01-09T08:40:06.304Z,100.00
2023-01-09T08:42:53.352Z,100.00
2023-01-09T08:45:40.174Z,100.00
2023-01-09T08:48:08.661Z,100.00
2023-01-09T08:50:39.298Z,100.00
2023-01-09T08:53:07.599Z,100.00
2023-01-09T08:55:35.952Z,100.00
2023-01-09T08:58:04.457Z,100.00
2023-01-09T09:00:32.800Z,100.00
2023-01-09T09:03:01.727Z,100.00
2023-01-09T09:05:32.334Z,100.00
2023-01-09T09:08:00.703Z,100.00
2023-01-09T09:10:30.082Z,100.00
2023-01-09T09:12:59.617Z,100.00
2023-01-09T09:15:28.919Z,100.00
2023-01-09T09:18:02.275Z,100.00
2023-01-09T09:20:37.149Z,100.00
2023-01-09T09:23:05.963Z,100.00
2023-01-09T09:25:34.404Z,100.00
2023-01-09T09:28:03.088Z,100.00
2023-01-09T09:30:31.374Z,100.00
2023-01-09T09:32:59.702Z,100.00
2023-01-09T09:35:28.643Z,100.00
2023-01-09T09:37:59.243Z,100.00
2023-01-09T09:40:53.297Z,100.00
2023-01-09T09:44:10.880Z,100.00
2023-01-09T09:46:44.730Z,100.00
2023-01-09T09:49:21.563Z,100.00
2023-01-09T09:52:06.516Z,100.00
2023-01-09T09:54:41.148Z,100.00
2023-01-09T09:57:17.710Z,100.00
2023-01-09T09:59:51.548Z,100.00
2023-01-09T10:02:29.119Z,100.00
2023-01-09T10:05:05.408Z,100.00
2023-01-09T10:07:42.261Z,100.00
2023-01-09T10:10:37.274Z,100.00
2023-01-09T10:13:25.687Z,100.00
2023-01-09T10:16:22.525Z,100.00
2023-01-09T10:19:21.480Z,100.00
2023-01-09T10:22:02.317Z,100.00
2023-01-09T10:24:58.376Z,100.00
2023-01-09T10:27:45.538Z,100.00
2023-01-09T10:30:28.284Z,100.00
2023-01-09T10:33:17.221Z,100.00
2023-01-09T10:36:10.998Z,100.00
2023-01-09T10:38:47.615Z,100.00
2023-01-09T10:41:27.413Z,100.00
2023-01-09T10:44:03.267Z,100.00
2023-01-09T10:46:43.992Z,100.00
2023-01-09T10:49:17.881Z,100.00
2023-01-09T10:51:50.171Z,100.00
2023-01-09T10:54:22.375Z,100.00
2023-01-09T10:57:07.415Z,99.92
2023-01-09T10:59:35.797Z,99.58
2023-01-09T11:02:04.296Z,99.34
2023-01-09T11:04:37.770Z,98.88
2023-01-09T11:07:24.951Z,98.24
2023-01-09T11:10:04.449Z,98.01
2023-01-09T11:12:37.620Z,97.49
2023-01-09T11:15:21.373Z,97.52
2023-01-09T11:17:52.046Z,97.30
2023-01-09T11:20:23.503Z,96.89
2023-01-09T11:23:00.418Z,96.82
2023-01-09T11:25:30.818Z,96.23
2023-01-09T11:28:09.993Z,96.20
2023-01-09T11:30:55.577Z,95.70
2023-01-09T11:33:26.209Z,94.81
2023-01-09T11:36:02.110Z,94.12
2023-01-09T11:38:45.927Z,93.88
2023-01-09T11:41:21.215Z,92.31
2023-01-09T11:43:54.675Z,92.03
2023-01-09T11:46:44.321Z,91.27
2023-01-09T11:49:13.724Z,90.94
2023-01-09T11:51:43.263Z,90.50
2023-01-09T11:54:24.170Z,89.37
2023-01-09T11:56:56.151Z,88.38
2023-01-09T11:59:32.976Z,88.23
2023-01-09T12:02:46.172Z,88.23
2023-01-09T12:05:46.772Z,88.33
2023-01-09T12:08:36.662Z,88.18
2023-01-09T12:11:15.035Z,88.32
2023-01-09T12:13:52.486Z,88.27
2023-01-09T12:16:35.703Z,87.96
2023-01-09T12:19:28.623Z,87.25
2023-01-09T12:22:23.398Z,87.37
2023-01-09T12:25:03.878Z,87.27
2023-01-09T12:28:09.492Z,87.41
2023-01-09T12:31:26.049Z,87.24
2023-01-09T12:34:00.362Z,86.33
2023-01-09T12:36:37.351Z,85.98
2023-01-09T12:39:56.590Z,85.34
2023-01-09T12:42:46.039Z,84.57
2023-01-09T12:45:36.415Z,83.72
2023-01-09T12:48:43.723Z,83.70
2023-01-09T12:51:24.381Z,83.98
2023-01-09T12:54:03.688Z,83.68
2023-01-09T12:56:42.069Z,83.09
2023-01-09T12:59:39.136Z,82.87
2023-01-09T13:02:30.776Z,82.88
2023-01-09T13:05:28.658Z,82.74
2023-01-09T13:08:07.042Z,82.80
2023-01-09T13:10:42.498Z,83.15
2023-01-09T13:13:36.592Z,83.42
2023-01-09T13:16:15.945Z,83.20
2023-01-09T13:19:03.520Z,83.31
2023-01-09T13:21:35.599Z,83.44
2023-01-09T13:24:37.884Z,83.58
2023-01-09T13:28:05.274Z,83.79
2023-01-09T13:31:02.334Z,84.31
2023-01-09T13:33:38.761Z,84.69
2023-01-09T13:36:08.156Z,84.55
2023-01-09T13:38:38.867Z,84.62
2023-01-09T13:41:33.707Z,84.72
2023-01-09T13:44:07.979Z,85.06
2023-01-09T13:46:44.399Z,85.28
2023-01-09T13:49:44.160Z,85.42
2023-01-09T13:52:24.863Z,85.46
2023-01-09T13:54:58.460Z,85.54
2023-01-09T13:57:35.976Z,85.83
2023-01-09T14:00:15.015Z,85.79
2023-01-09T14:02:46.842Z,85.72
2023-01-09T14:05:36.836Z,86.02
2023-01-09T14:08:30.576Z,86.14
2023-01-09T14:11:01.331Z,86.39
2023-01-09T14:13:45.778Z,86.41
2023-01-09T14:16:25.741Z,86.53
2023-01-09T14:19:24.828Z,86.61
2023-01-09T14:21:58.692Z,86.67
2023-01-09T14:24:44.081Z,86.89
2023-01-09T14:27:37.809Z,86.79
2023-01-09T14:30:28.313Z,86.94
2023-01-09T14:33:18.979Z,86.94
2023-01-09T14:36:15.062Z,87.17
2023-01-09T14:38:48.361Z,87.25
2023-01-09T14:41:57.011Z,87.41
2023-01-09T14:44:44.981Z,87.43
2023-01-09T14:47:36.559Z,87.65
2023-01-09T14:50:19.226Z,87.80
2023-01-09T14:53:06.243Z,87.85
2023-01-09T14:55:58.627Z,87.81
2023-01-09T14:58:28.419Z,87.91
2023-01-09T15:01:06.237Z,87.99
2023-01-09T15:03:40.990Z,88.07
2023-01-09T15:06:18.753Z,88.04
2023-01-09T15:08:51.817Z,88.08
2023-01-09T15:11:20.361Z,88.19
2023-01-09T15:13:53.569Z,88.35
2023-01-09T15:16:25.104Z,88.39
2023-01-09T15:19:07.760Z,88.61
2023-01-09T15:21:36.210Z,88.63
2023-01-09T15:24:30.715Z,88.66
2023-01-09T15:27:50.535Z,88.78
2023-01-09T15:30:24.436Z,89.17
2023-01-09T15:32:55.214Z,89.24
2023-01-09T15:35:25.002Z,89.57
2023-01-09T15:38:02.863Z,89.68
2023-01-09T15:40:36.268Z,89.78
2023-01-09T15:43:04.774Z,89.91
2023-01-09T15:45:42.508Z,90.09
2023-01-09T15:48:35.071Z,90.25
2023-01-09T15:51:10.342Z,90.28
2023-01-09T15:53:41.341Z,90.33
2023-01-09T15:56:12.527Z,90.34
2023-01-09T15:58:47.379Z,90.44
2023-01-09T16:01:40.769Z,90.62
2023-01-09T16:04:13.152Z,90.57
2023-01-09T16:06:46.957Z,90.68
2023-01-09T16:09:23.839Z,90.63
2023-01-09T16:12:46.533Z,90.64
2023-01-09T16:15:18.479Z,90.70
2023-01-09T16:18:17.889Z,90.65
2023-01-09T16:20:46.498Z,90.54
2023-01-09T16:23:31.839Z,90.69
2023-01-09T16:26:07.202Z,90.64
2023-01-09T16:28:35.659Z,90.62
2023-01-09T16:31:09.961Z,90.67
2023-01-09T16:33:48.802Z,90.73
2023-01-09T16:36:17.388Z,90.73
2023-01-09T16:38:46.226Z,90.69
2023-01-09T16:41:38.417Z,90.72
2023-01-09T16:44:10.048Z,90.64
2023-01-09T16:46:44.372Z,90.64
2023-01-09T16:49:24.581Z,90.56
2023-01-09T16:51:53.535Z,90.82
2023-01-09T16:54:22.298Z,90.87
2023-01-09T16:56:53.654Z,91.05
2023-01-09T16:59:27.177Z,91.08
2023-01-09T17:01:58.400Z,91.03
2023-01-09T17:04:27.169Z,91.07
2023-01-09T17:06:58.487Z,90.94
2023-01-09T17:09:27.796Z,91.24
2023-01-09T17:11:57.801Z,91.40
2023-01-09T17:14:28.831Z,91.38
2023-01-09T17:16:58.209Z,91.55
2023-01-09T17:19:26.764Z,91.76
2023-01-09T17:21:55.157Z,91.76
2023-01-09T17:24:42.289Z,91.87
2023-01-09T17:27:29.894Z,92.04
2023-01-09T17:30:05.578Z,92.44
2023-01-09T17:32:42.133Z,92.59
2023-01-09T17:35:13.184Z,92.66
2023-01-09T17:37:43.089Z,92.80
2023-01-09T17:40:23.199Z,92.98
2023-01-09T17:42:51.611Z,93.14
2023-01-09T17:45:21.341Z,93.28
2023-01-09T17:47:49.780Z,93.43
2023-01-09T17:50:21.056Z,93.65
2023-01-09T17:52:51.007Z,93.91
2023-01-09T17:55:19.675Z,94.14
2023-01-09T17:57:48.114Z,94.23
2023-01-09T18:00:36.928Z,94.36
2023-01-09T18:03:07.592Z,94.38
2023-01-09T18:05:37.211Z,94.62
2023-01-09T18:08:09.355Z,94.83
2023-01-09T18:10:37.934Z,95.01
2023-01-09T18:13:06.882Z,95.18
2023-01-09T18:15:35.385Z,95.32
2023-01-09T18:18:06.591Z,95.49
2023-01-09T18:20:45.310Z,95.64
2023-01-09T18:23:16.601Z,95.85
2023-01-09T18:25:45.153Z,96.02
2023-01-09T18:28:16.281Z,96.04
2023-01-09T18:30:47.516Z,96.10
2023-01-09T18:33:18.721Z,96.32
2023-01-09T18:35:47.306Z,96.42
2023-01-09T18:38:23.462Z,96.58
2023-01-09T18:40:52.068Z,96.69
2023-01-09T18:43:21.603Z,96.71
2023-01-09T18:45:50.093Z,96.87
2023-01-09T18:48:18.636Z,96.85
2023-01-09T18:50:58.747Z,96.89
2023-01-09T18:53:27.263Z,97.12
2023-01-09T18:55:58.368Z,97.20
2023-01-09T18:58:26.788Z,97.21
2023-01-09T19:00:56.373Z,97.41
2023-01-09T19:03:24.899Z,97.58
2023-01-09T19:05:53.188Z,97.73
2023-01-09T19:08:21.662Z,97.77
2023-01-09T19:10:53.500Z,97.90
2023-01-09T19:13:22.110Z,98.03
2023-01-09T19:15:55.888Z,98.14
2023-01-09T19:18:28.791Z,98.27
2023-01-09T19:20:57.275Z,98.44
2023-01-09T19:23:25.670Z,98.70
2023-01-09T19:25:54.791Z,98.99
2023-01-09T19:28:23.421Z,99.14
2023-01-09T19:30:59.219Z,99.46
2023-01-09T19:33:28.215Z,99.60
2023-01-09T19:35:56.753Z,99.86
2023-01-09T19:38:26.893Z,99.98
2023-01-09T19:40:58.198Z,100.00
2023-01-09T19:43:29.851Z,100.00
2023-01-09T19:45:58.439Z,100.00
2023-01-09T19:48:29.125Z,100.00
2023-01-09T19:51:06.069Z,100.00
2023-01-09T19:53:38.963Z,100.00
2023-01-09T19:56:14.774Z,100.00
2023-01-09T19:58:52.212Z,100.00
2023-01-09T20:01:26.494Z,100.00
2023-01-09T20:04:03.008Z,100.00
2023-01-09T20:06:32.778Z,100.00
2023-01-09T20:09:03.755Z,100.00
2023-01-09T20:11:33.367Z,100.00
2023-01-09T20:14:05.644Z,100.00
2023-01-09T20:16:34.127Z,100.00
2023-01-09T20:19:08.793Z,100.00
2023-01-09T20:21:37.850Z,100.00
2023-01-09T20:24:11.144Z,100.00
2023-01-09T20:26:40.721Z,100.00
2023-01-09T20:29:12.758Z,100.00
2023-01-09T20:31:46.890Z,100.00
2023-01-09T20:34:17.422Z,100.00
2023-01-09T20:36:46.455Z,100.00
2023-01-09T20:39:15.012Z,100.00
2023-01-09T20:41:46.275Z,100.00
2023-01-09T20:44:16.860Z,100.00
2023-01-09T20:46:48.259Z,100.00
2023-01-09T20:49:20.628Z,100.00
2023-01-09T20:51:52.343Z,100.00
2023-01-09T20:54:21.807Z,100.00
2023-01-09T20:56:53.719Z,100.00
2023-01-09T20:59:27.585Z,100.00
2023-01-09T21:01:56.144Z,100.00
2023-01-09T21:04:24.891Z,100.00
2023-01-09T21:06:53.355Z,100.00
2023-01-09T21:09:22.072Z,100.00
2023-01-09T21:11:58.113Z,100.00
2023-01-09T21:14:26.817Z,100.00
2023-01-09T21:16:55.514Z,100.00
2023-01-09T21:19:27.093Z,100.00
2023-01-09T21:21:58.877Z,100.00
2023-01-09T21:24:32.274Z,100.00
2023-01-09T21:27:00.739Z,100.00
2023-01-09T21:29:31.798Z,100.00
2023-01-09T21:32:08.693Z,100.00
2023-01-09T21:34:42.241Z,100.00
2023-01-09T21:37:12.715Z,100.00
2023-01-09T21:39:41.798Z,100.00
2023-01-09T21:42:31.911Z,100.00
2023-01-09T21:45:18.899Z,100.00
2023-01-09T21:47:47.815Z,100.00
2023-01-09T21:50:17.489Z,100.00
2023-01-09T21:52:45.962Z,100.00
2023-01-09T21:55:14.633Z,100.00
2023-01-09T21:57:43.028Z,100.00
2023-01-09T22:00:11.923Z,100.00
2023-01-09T22:02:41.135Z,100.00
2023-01-09T22:05:15.008Z,100.00
2023-01-09T22:07:43.355Z,100.00
2023-01-09T22:10:12.544Z,100.00
2023-01-09T22:13:00.865Z,100.00
2023-01-09T22:15:29.557Z,100.00
2023-01-09T22:18:00.447Z,100.00
2023-01-09T22:20:29.138Z,100.00
2023-01-09T22:22:57.599Z,100.00
2023-01-09T22:25:25.966Z,100.00
2023-01-09T22:27:54.336Z,100.00
2023-01-09T22:30:22.642Z,100.00
2023-01-09T22:32:51.036Z,100.00
2023-01-09T22:35:19.506Z,100.00
2023-01-09T22:37:52.282Z,100.00
2023-01-09T22:40:20.892Z,100.00
2023-01-09T22:42:52.980Z,100.00
2023-01-09T22:45:22.114Z,100.00
2023-01-09T22:47:54.004Z,100.00
2023-01-09T22:50:23.127Z,100.00
2023-01-09T22:52:54.390Z,100.00
2023-01-09T22:55:28.967Z,100.00
2023-01-09T22:57:57.263Z,100.00
2023-01-09T23:00:25.663Z,100.00
2023-01-09T23:08:48.048Z,100.00
2023-01-09T23:11:55.365Z,100.00
2023-01-09T23:14:23.524Z,100.00
2023-01-09T23:16:51.766Z,100.00
2023-01-09T23:19:20.038Z,100.00
2023-01-09T23:21:48.562Z,100.00
2023-01-09T23:24:17.987Z,100.00
2023-01-09T23:26:46.590Z,100.00
2023-01-09T23:29:15.133Z,100.00
2023-01-09T23:31:43.398Z,100.00
2023-01-09T23:34:19.848Z,100.00
2023-01-09T23:36:49.608Z,100.00
2023-01-09T23:39:17.970Z,100.00
2023-01-09T23:42:04.881Z,100.00
2023-01-09T23:44:36.486Z,100.00
2023-01-09T23:47:05.398Z,100.00
2023-01-09T23:49:33.662Z,100.00
2023-01-09T23:52:05.008Z,100.00
2023-01-09T23:54:33.141Z,100.00
2023-01-09T23:57:27.314Z,100.00
2023-01-09T23:59:55.528Z,100.00
